Ituiutaba, Brazil
Current Conditions -  °F | °C
As of 6:25 PM on Friday 28 Nov 2014 (Local Time) from SBUL Reporting Station
Thunderstorm Thunderstorm  
Wind Chill: 68°   Ceiling: 400
Heat Index: 68°   Visibility: 1.2mi
Dew Point: 64°   Wind: 10mph
Humidity: 88%   Direction: 330°NNW
Pressure: 30"   Gusts: NA
Location:  18.97°S, 49.46°W
Report Text: SBUL 282025Z 33009KT 2000 TSRA BKN004 FEW030CB 20/18 Q1016
Loading
Personal Weather Stations






























Interactive Weather Map New forecast layout! Learn more

10-Day Weather Forecast

Advertisements
Track Severe Weather on mobile